Time;durP1;ratioP1;P1;durP2;ratioP2;P2;SDS_P1;SDS_P2;PMS_P1;PMS_P2;Temp;Humidity;BMP_temperature;BMP_pressure;BME280_temperature;BME280_humidity;BME280_pressure;Samples;Min_cycle;Max_cycle;Signal;HPM_P1;HPM_P2
2023/07/05 00:01:52;;;;;;;;;;;;;;;21.46;66.71;99554.88;4508461;31;32418;-79
2023/07/05 00:04:26;;;;;;;;;;;;;;;21.70;65.89;99549.91;4516003;31;34006;-80
2023/07/05 00:06:55;;;;;;;;;;;;;;;21.45;66.79;99548.72;4494724;31;33432;-81
2023/07/05 00:09:33;;;;;;;;;;;;;;;21.54;66.11;99547.34;4494980;31;35402;-79
2023/07/05 00:12:01;;;;;;;;;;;;;;;21.83;65.07;99547.34;4494178;31;33962;-79
2023/07/05 00:14:38;;;;;;;;;;;;;;;21.69;65.35;99549.03;4507946;31;33201;-80
2023/07/05 00:17:12;;;;;;;;;;;;;;;21.65;65.64;99552.81;4513624;31;34038;-78
2023/07/05 00:19:41;;;;;;;;;;;;;;;21.44;66.48;99547.03;4511637;31;34310;-77
2023/07/05 00:22:13;;;;;;;;;;;;;;;21.62;65.52;99541.56;4497157;31;33580;-79
2023/07/05 00:24:43;;;;;;;;;;;;;;;21.45;65.98;99542.59;4494621;31;33290;-77
2023/07/05 00:27:13;;;;;;;;;;;;;;;21.35;66.40;99544.06;4500063;31;33957;-78
2023/07/05 00:29:42;;;;;;;;;;;;;;;21.25;66.76;99541.97;4497531;31;33379;-77
2023/07/05 00:32:12;;;;;;;;;;;;;;;21.26;66.65;99535.78;4493799;31;33928;-78
2023/07/05 00:34:45;;;;;;;;;;;;;;;21.50;65.35;99536.13;4502187;31;34730;-81
2023/07/05 00:37:15;;;;;;;;;;;;;;;21.45;65.42;99545.25;4496896;31;35004;-78
2023/07/05 00:39:46;;;;;;;;;;;;;;;21.38;65.84;99549.16;4499638;31;34145;-79
2023/07/05 00:42:15;;;;;;;;;;;;;;;21.33;65.85;99545.94;4496985;31;33547;-79
2023/07/05 00:45:00;;;;;;;;;;;;;;;21.41;65.42;99549.03;4494252;31;34118;-77
2023/07/05 00:47:30;;;;;;;;;;;;;;;21.25;66.03;99552.53;4493928;31;34121;-79
2023/07/05 00:50:00;;;;;;;;;;;;;;;21.25;66.36;99549.91;4498143;31;34334;-79
2023/07/05 00:52:30;;;;;;;;;;;;;;;21.03;67.53;99549.47;4504511;31;33101;-78
2023/07/05 00:55:04;;;;;;;;;;;;;;;21.27;65.95;99548.03;4510208;31;33761;-78
2023/07/05 00:57:32;;;;;;;;;;;;;;;21.26;65.65;99541.06;4509708;31;34789;-80
2023/07/05 01:00:05;;;;;;;;;;;;;;;21.09;65.67;99538.56;4511231;31;34603;-79
2023/07/05 01:02:38;;;;;;;;;;;;;;;21.37;64.66;99542.19;4512546;31;34596;-78
2023/07/05 01:05:14;;;;;;;;;;;;;;;21.43;64.54;99544.47;4493885;31;34057;-80
2023/07/05 01:07:50;;;;;;;;;;;;;;;21.15;65.53;99542.63;4493699;31;33722;-79
2023/07/05 01:10:20;;;;;;;;;;;;;;;21.01;66.08;99540.81;4493974;31;34654;-81
2023/07/05 01:12:50;;;;;;;;;;;;;;;21.23;65.38;99541.22;4493643;31;33716;-78
2023/07/05 01:15:20;;;;;;;;;;;;;;;20.85;66.66;99538.19;4499115;31;32893;-77
2023/07/05 01:17:50;;;;;;;;;;;;;;;20.91;66.79;99544.91;4493600;31;33668;-81
2023/07/05 01:20:24;;;;;;;;;;;;;;;20.46;69.01;99535.13;4498733;31;33949;-78
2023/07/05 01:23:00;;;;;;;;;;;;;;;20.92;67.09;99536.91;4493763;31;33831;-78
2023/07/05 01:25:45;;;;;;;;;;;;;;;20.75;67.69;99539.69;4498937;31;33559;-79
2023/07/05 01:28:26;;;;;;;;;;;;;;;21.02;66.22;99534.56;4514404;31;34398;-78
2023/07/05 01:31:01;;;;;;;;;;;;;;;21.09;65.58;99539.44;4507337;31;33835;-79
2023/07/05 01:33:32;;;;;;;;;;;;;;;20.98;65.76;99533.91;4493190;31;34242;-78
2023/07/05 01:36:02;;;;;;;;;;;;;;;20.98;65.62;99533.09;4494656;31;33178;-81
2023/07/05 01:38:31;;;;;;;;;;;;;;;21.02;65.66;99531.94;4503586;31;34481;-77
2023/07/05 01:41:08;;;;;;;;;;;;;;;21.03;65.56;99534.50;4508201;31;33661;-78
2023/07/05 01:43:51;;;;;;;;;;;;;;;20.97;65.91;99531.38;4494421;31;33780;-77
2023/07/05 01:46:26;;;;;;;;;;;;;;;21.00;65.95;99533.84;4493271;31;32828;-78
2023/07/05 01:49:01;;;;;;;;;;;;;;;20.83;66.61;99532.19;4493749;31;33721;-77
2023/07/05 01:51:39;;;;;;;;;;;;;;;20.84;66.31;99529.44;4493796;31;34559;-76
2023/07/05 01:54:11;;;;;;;;;;;;;;;20.98;65.52;99531.28;4498802;31;33473;-79
2023/07/05 01:56:41;;;;;;;;;;;;;;;20.94;65.56;99529.75;4493606;31;32794;-77
2023/07/05 01:59:10;;;;;;;;;;;;;;;20.89;65.57;99531.81;4496195;31;34095;-78
2023/07/05 02:01:42;;;;;;;;;;;;;;;20.62;66.33;99527.19;4502636;31;34459;-79
2023/07/05 02:04:15;;;;;;;;;;;;;;;20.43;67.29;99519.47;4493319;31;33460;-77
2023/07/05 02:06:45;;;;;;;;;;;;;;;20.69;66.43;99529.50;4498748;31;33185;-80
2023/07/05 02:09:15;;;;;;;;;;;;;;;20.61;66.43;99522.00;4494953;31;34128;-78
2023/07/05 02:11:44;;;;;;;;;;;;;;;20.69;66.21;99525.06;4501923;31;34063;-78
2023/07/05 02:14:14;;;;;;;;;;;;;;;20.75;65.99;99526.50;4499310;31;33960;-80
2023/07/05 02:16:43;;;;;;;;;;;;;;;20.58;66.71;99522.19;4502488;31;33269;-78
2023/07/05 02:19:13;;;;;;;;;;;;;;;20.66;66.50;99520.81;4496239;31;34095;-78
2023/07/05 02:21:43;;;;;;;;;;;;;;;20.31;68.50;99514.03;4488776;31;32411;-79
2023/07/05 02:24:14;;;;;;;;;;;;;;;20.58;67.81;99515.13;4497949;31;33992;-78
2023/07/05 02:26:44;;;;;;;;;;;;;;;20.59;67.78;99516.84;4495094;31;32878;-80
2023/07/05 02:29:23;;;;;;;;;;;;;;;20.66;67.51;99519.97;4500359;31;34512;-77
2023/07/05 02:31:51;;;;;;;;;;;;;;;20.71;67.26;99522.31;4497580;31;33907;-79
2023/07/05 02:34:37;;;;;;;;;;;;;;;20.65;67.69;99520.91;4494401;31;33543;-77
2023/07/05 02:37:15;;;;;;;;;;;;;;;20.77;67.34;99522.81;4503003;31;32797;-77
2023/07/05 02:39:48;;;;;;;;;;;;;;;20.79;67.19;99515.69;4498841;31;33974;-79
2023/07/05 02:42:17;;;;;;;;;;;;;;;20.81;67.13;99516.44;4506665;31;34398;-78
2023/07/05 02:44:49;;;;;;;;;;;;;;;20.25;69.37;99515.25;4494694;31;35027;-78
2023/07/05 02:47:19;;;;;;;;;;;;;;;20.40;69.34;99514.38;4494915;31;33114;-77
2023/07/05 02:49:53;;;;;;;;;;;;;;;20.69;67.54;99511.88;4495794;31;35091;-77
2023/07/05 02:52:22;;;;;;;;;;;;;;;20.72;66.88;99516.97;4495515;31;35150;-79
2023/07/05 02:54:55;;;;;;;;;;;;;;;20.82;66.24;99514.66;4500870;31;34031;-79
2023/07/05 02:57:23;;;;;;;;;;;;;;;20.83;66.29;99519.00;4497150;31;32957;-76
2023/07/05 02:59:54;;;;;;;;;;;;;;;20.78;66.33;99513.13;4514901;31;34164;-80
2023/07/05 03:02:23;;;;;;;;;;;;;;;20.66;66.88;99510.28;4510759;31;34052;-77
2023/07/05 03:04:55;;;;;;;;;;;;;;;20.72;66.45;99516.97;4516189;31;34802;-79
2023/07/05 03:07:25;;;;;;;;;;;;;;;20.52;67.16;99518.09;4505882;31;33614;-80
2023/07/05 03:09:57;;;;;;;;;;;;;;;20.57;66.86;99510.81;4498739;31;34997;-78
2023/07/05 03:12:25;;;;;;;;;;;;;;;20.65;66.82;99519.09;4495364;31;34228;-78
2023/07/05 03:14:58;;;;;;;;;;;;;;;20.64;66.86;99516.59;4504919;31;34232;-78
2023/07/05 03:17:26;;;;;;;;;;;;;;;20.42;67.85;99519.56;4504882;31;33481;-78
2023/07/05 03:19:59;;;;;;;;;;;;;;;20.59;67.05;99508.09;4497301;31;34530;-78
2023/07/05 03:22:28;;;;;;;;;;;;;;;20.61;67.35;99507.06;4495674;31;33669;-79
2023/07/05 03:24:57;;;;;;;;;;;;;;;20.57;67.64;99516.06;4494356;31;34237;-77
2023/07/05 03:27:27;;;;;;;;;;;;;;;20.59;67.64;99516.84;4500074;31;34155;-78
2023/07/05 03:29:56;;;;;;;;;;;;;;;20.50;68.05;99519.13;4495535;31;34511;-76
2023/07/05 03:32:31;;;;;;;;;;;;;;;20.57;67.84;99515.22;4496589;31;34896;-78
2023/07/05 03:35:04;;;;;;;;;;;;;;;20.49;68.46;99506.88;4494647;31;34442;-78
2023/07/05 03:37:35;;;;;;;;;;;;;;;20.54;68.21;99516.22;4494057;31;32847;-81
2023/07/05 03:40:07;;;;;;;;;;;;;;;20.60;68.22;99515.91;4499791;31;35081;-78
2023/07/05 03:42:37;;;;;;;;;;;;;;;20.74;67.63;99524.81;4500883;31;33919;-78
2023/07/05 03:45:13;;;;;;;;;;;;;;;20.57;68.52;99509.97;4494485;31;34318;-78
2023/07/05 03:47:42;;;;;;;;;;;;;;;20.64;68.48;99516.59;4509425;31;33176;-80
2023/07/05 03:50:14;;;;;;;;;;;;;;;20.56;68.97;99524.94;4501057;31;34552;-78
2023/07/05 03:52:43;;;;;;;;;;;;;;;20.61;68.83;99528.16;4499600;31;34963;-78
2023/07/05 03:55:16;;;;;;;;;;;;;;;20.75;67.86;99524.69;4493975;31;33756;-81
2023/07/05 03:57:51;;;;;;;;;;;;;;;20.79;67.22;99518.31;4494375;31;33659;-78
2023/07/05 04:00:20;;;;;;;;;;;;;;;20.71;67.66;99522.31;4500127;31;34842;-78
2023/07/05 04:02:52;;;;;;;;;;;;;;;20.95;66.48;99526.19;4510203;31;34702;-77
2023/07/05 04:05:22;;;;;;;;;;;;;;;20.98;65.71;99523.38;4503016;31;35740;-78
2023/07/05 04:07:51;;;;;;;;;;;;;;;21.06;65.73;99529.03;4499592;31;33493;-78
2023/07/05 04:10:21;;;;;;;;;;;;;;;20.91;66.29;99516.75;4495141;31;33812;-78
2023/07/05 04:12:50;;;;;;;;;;;;;;;20.96;66.60;99522.59;4496617;31;34287;-79
2023/07/05 04:15:22;;;;;;;;;;;;;;;21.04;66.55;99528.25;4500416;31;33750;-78
2023/07/05 04:17:51;;;;;;;;;;;;;;;21.08;66.45;99529.78;4505629;31;33456;-77
2023/07/05 04:20:22;;;;;;;;;;;;;;;20.96;67.04;99534.94;4503533;31;33850;-79
2023/07/05 04:22:57;;;;;;;;;;;;;;;21.16;66.53;99526.69;4495782;31;35954;-79
2023/07/05 04:25:25;;;;;;;;;;;;;;;21.38;66.26;99533.31;4505085;31;34087;-82
2023/07/05 04:27:55;;;;;;;;;;;;;;;21.45;66.29;99529.41;4500024;31;32980;-79
2023/07/05 04:30:24;;;;;;;;;;;;;;;21.68;66.03;99536.78;4497151;31;33334;-78
2023/07/05 04:33:00;;;;;;;;;;;;;;;21.67;66.42;99539.50;4498110;31;34418;-80
2023/07/05 04:35:30;;;;;;;;;;;;;;;22.14;64.55;99541.81;4494646;31;34035;-79
2023/07/05 04:38:02;;;;;;;;;;;;;;;22.53;62.71;99548.16;4499184;31;33193;-78
2023/07/05 04:40:31;;;;;;;;;;;;;;;23.09;61.26;99539.25;4496068;31;34709;-81
2023/07/05 04:43:04;;;;;;;;;;;;;;;23.93;58.93;99544.06;4501022;31;34122;-79
2023/07/05 04:45:32;;;;;;;;;;;;;;;24.69;56.92;99552.72;4509787;31;33657;-78
2023/07/05 04:48:03;;;;;;;;;;;;;;;25.43;53.52;99542.75;4511395;31;33199;-79
2023/07/05 04:50:34;;;;;;;;;;;;;;;25.98;53.08;99542.91;4503339;31;34890;-79
2023/07/05 04:53:03;;;;;;;;;;;;;;;26.59;51.36;99540.62;4482035;31;34148;-79
2023/07/05 04:55:34;;;;;;;;;;;;;;;26.92;50.69;99554.78;4493852;31;33906;-77
2023/07/05 04:58:04;;;;;;;;;;;;;;;27.73;47.37;99547.03;4494530;31;33428;-78
2023/07/05 05:00:36;;;;;;;;;;;;;;;27.72;47.96;99544.53;4499345;31;34201;-77
2023/07/05 05:03:07;;;;;;;;;;;;;;;27.69;47.28;99547.44;4496112;31;34687;-79
2023/07/05 05:05:37;;;;;;;;;;;;;;;28.26;46.55;99551.31;4493413;31;34356;-79
2023/07/05 05:08:07;;;;;;;;;;;;;;;28.40;46.21;99552.75;4493685;31;32574;-79
2023/07/05 05:10:39;;;;;;;;;;;;;;;28.90;45.42;99550.84;4494322;31;34000;-79
2023/07/05 05:13:12;;;;;;;;;;;;;;;29.20;43.54;99545.50;4499693;31;34661;-77
2023/07/05 05:15:41;;;;;;;;;;;;;;;29.02;44.27;99553.34;4499847;31;34134;-83
2023/07/05 05:18:10;;;;;;;;;;;;;;;28.96;44.77;99546.75;4502957;31;32916;-79
2023/07/05 05:20:40;;;;;;;;;;;;;;;29.17;44.47;99552.00;4492929;31;33588;-81
2023/07/05 05:23:17;;;;;;;;;;;;;;;29.19;44.28;99546.47;4499123;31;34369;-80
2023/07/05 05:25:50;;;;;;;;;;;;;;;28.59;45.29;99542.13;4498248;31;33723;-81
2023/07/05 05:28:23;;;;;;;;;;;;;;;29.07;44.54;99543.16;4507903;31;33132;-79
2023/07/05 05:31:05;;;;;;;;;;;;;;;28.96;45.05;99543.25;4501806;31;33791;-80
2023/07/05 05:33:36;;;;;;;;;;;;;;;28.59;46.07;99536.78;4505824;31;34902;-79
2023/07/05 05:36:08;;;;;;;;;;;;;;;28.97;44.69;99547.59;4498055;31;33961;-80
2023/07/05 05:38:37;;;;;;;;;;;;;;;28.83;45.30;99544.41;4495981;31;35302;-81
2023/07/05 05:41:09;;;;;;;;;;;;;;;29.03;44.87;99542.53;4507106;31;34586;-81
2023/07/05 05:43:45;;;;;;;;;;;;;;;29.10;45.24;99546.38;4501177;31;33786;-80
2023/07/05 05:46:14;;;;;;;;;;;;;;;29.19;45.87;99550.03;4494020;31;34835;-80
2023/07/05 05:48:44;;;;;;;;;;;;;;;29.17;45.67;99540.47;4501633;31;33621;-80
2023/07/05 05:51:14;;;;;;;;;;;;;;;28.74;45.68;99542.56;4498100;31;33367;-80
2023/07/05 05:53:45;;;;;;;;;;;;;;;28.82;45.85;99536.50;4494600;31;33622;-80
2023/07/05 05:56:14;;;;;;;;;;;;;;;29.13;45.39;99535.37;4496551;31;34431;-80
2023/07/05 05:58:46;;;;;;;;;;;;;;;29.28;45.25;99541.13;4506637;31;34979;-82
2023/07/05 06:01:15;;;;;;;;;;;;;;;29.38;45.01;99542.94;4506854;31;33901;-80
2023/07/05 06:03:45;;;;;;;;;;;;;;;29.43;43.25;99540.66;4495143;31;34725;-80
2023/07/05 06:06:16;;;;;;;;;;;;;;;29.17;44.59;99538.63;4494001;31;34072;-79
2023/07/05 06:08:47;;;;;;;;;;;;;;;28.76;45.81;99532.59;4511729;31;34131;-80
2023/07/05 06:11:16;;;;;;;;;;;;;;;28.39;46.69;99532.38;4512192;31;34526;-79
2023/07/05 06:13:46;;;;;;;;;;;;;;;27.91;48.32;99525.09;4496778;31;34272;-79
2023/07/05 06:16:18;;;;;;;;;;;;;;;26.99;49.27;99525.81;4494364;31;33768;-79
2023/07/05 06:18:47;;;;;;;;;;;;;;;26.94;50.83;99528.87;4495459;31;34178;-81
2023/07/05 06:21:21;;;;;;;;;;;;;;;26.80;50.93;99519.38;4499347;31;33983;-79
2023/07/05 06:23:51;;;;;;;;;;;;;;;26.31;53.09;99526.06;4491687;31;32450;-81
2023/07/05 06:26:21;;;;;;;;;;;;;;;26.47;51.66;99520.31;4494448;31;33508;-81
2023/07/05 06:28:55;;;;;;;;;;;;;;;26.38;52.42;99515.75;4495427;31;32994;-79
2023/07/05 06:31:24;;;;;;;;;;;;;;;26.47;52.44;99524.81;4497324;31;33205;-78
2023/07/05 06:33:57;;;;;;;;;;;;;;;26.53;53.43;99525.19;4503592;31;34442;-78
2023/07/05 06:36:27;;;;;;;;;;;;;;;26.48;53.41;99519.38;4506728;31;34318;-81
2023/07/05 06:38:57;;;;;;;;;;;;;;;26.55;53.34;99530.38;4494077;31;34085;-79
2023/07/05 06:41:25;;;;;;;;;;;;;;;26.83;52.63;99523.59;4496361;31;34082;-80
2023/07/05 06:43:56;;;;;;;;;;;;;;;26.81;52.19;99522.88;4498697;31;33423;-78
2023/07/05 06:46:26;;;;;;;;;;;;;;;26.96;51.77;99518.94;4501807;31;33696;-79
2023/07/05 06:49:01;;;;;;;;;;;;;;;27.04;51.68;99523.63;4495877;31;33376;-78
2023/07/05 06:51:32;;;;;;;;;;;;;;;27.01;51.98;99521.22;4499501;31;34670;-81
2023/07/05 06:54:02;;;;;;;;;;;;;;;27.34;51.14;99516.69;4494221;31;34341;-81
2023/07/05 06:56:31;;;;;;;;;;;;;;;27.18;51.00;99519.78;4503757;31;33930;-82
2023/07/05 06:59:04;;;;;;;;;;;;;;;27.09;50.87;99517.91;4499114;31;34864;-80
2023/07/05 07:01:34;;;;;;;;;;;;;;;26.98;51.61;99521.47;4496229;31;34443;-78
2023/07/05 07:04:07;;;;;;;;;;;;;;;26.97;51.98;99525.12;4496699;31;33884;-80
2023/07/05 07:06:37;;;;;;;;;;;;;;;27.09;51.07;99521.41;4493278;31;33933;-78
2023/07/05 07:09:07;;;;;;;;;;;;;;;27.27;49.75;99523.53;4500843;31;32452;-80
2023/07/05 07:11:36;;;;;;;;;;;;;;;26.91;52.42;99513.16;4498396;31;34535;-79
2023/07/05 07:14:08;;;;;;;;;;;;;;;26.88;52.30;99513.41;4494960;31;32868;-79
2023/07/05 07:16:37;;;;;;;;;;;;;;;27.09;51.07;99515.25;4493793;31;34015;-81
2023/07/05 07:19:11;;;;;;;;;;;;;;;27.19;50.95;99509.03;4499036;31;34157;-80
2023/07/05 07:21:41;;;;;;;;;;;;;;;26.66;52.77;99506.37;4501849;31;33900;-79
2023/07/05 07:24:11;;;;;;;;;;;;;;;27.00;52.34;99509.72;4498232;31;34811;-82
2023/07/05 07:26:40;;;;;;;;;;;;;;;27.33;51.45;99513.19;4493403;31;34646;-80
2023/07/05 07:29:12;;;;;;;;;;;;;;;27.49;51.50;99517.19;4506356;31;32909;-79
2023/07/05 07:31:41;;;;;;;;;;;;;;;27.65;49.47;99510.38;4502788;31;34480;-81
2023/07/05 07:34:11;;;;;;;;;;;;;;;27.78;49.19;99510.16;4504461;31;34052;-80
2023/07/05 07:36:45;;;;;;;;;;;;;;;28.04;48.68;99504.38;4500989;31;32950;-79
2023/07/05 07:39:16;;;;;;;;;;;;;;;27.91;49.26;99509.97;4494631;31;33053;-80
2023/07/05 07:41:44;;;;;;;;;;;;;;;27.93;49.22;99512.47;4494590;31;34529;-79
2023/07/05 07:46:47;;;;;;;;;;;;;;;28.23;48.76;99512.41;4495753;31;34228;-81
2023/07/05 07:49:15;;;;;;;;;;;;;;;28.31;47.97;99511.72;4482757;31;31517;-79
2023/07/05 07:51:47;;;;;;;;;;;;;;;28.43;48.08;99509.78;4503742;31;32365;-79
2023/07/05 07:54:20;;;;;;;;;;;;;;;28.48;47.51;99508.41;4503912;31;35111;-79
2023/07/05 07:56:49;;;;;;;;;;;;;;;28.40;47.93;99504.72;4495615;31;33847;-80
2023/07/05 07:59:19;;;;;;;;;;;;;;;28.53;46.94;99504.47;4497410;31;33007;-80
2023/07/05 08:01:48;;;;;;;;;;;;;;;28.62;46.42;99507.16;4497951;31;33123;-78
2023/07/05 08:04:17;;;;;;;;;;;;;;;28.12;47.37;99507.19;4502312;31;35057;-79
2023/07/05 08:06:49;;;;;;;;;;;;;;;28.50;47.88;99502.94;4499561;31;34286;-78
2023/07/05 08:09:25;;;;;;;;;;;;;;;28.57;47.00;99508.56;4495661;31;32792;-79
2023/07/05 08:11:55;;;;;;;;;;;;;;;28.27;47.08;99512.97;4496449;31;33264;-80
2023/07/05 08:14:28;;;;;;;;;;;;;;;28.55;46.34;99505.19;4499419;31;33837;-79
2023/07/05 08:16:57;;;;;;;;;;;;;;;28.84;47.45;99513.19;4504434;31;34008;-81
2023/07/05 08:19:26;;;;;;;;;;;;;;;29.00;44.96;99509.97;4501494;31;34172;-82
2023/07/05 08:21:57;;;;;;;;;;;;;;;28.71;46.63;99513.50;4495959;31;34051;-79
2023/07/05 08:24:26;;;;;;;;;;;;;;;29.12;45.08;99506.16;4495125;31;33885;-80
2023/07/05 08:26:55;;;;;;;;;;;;;;;29.11;45.11;99504.47;4499163;31;34132;-79
2023/07/05 08:29:27;;;;;;;;;;;;;;;29.06;46.03;99504.87;4499627;31;33817;-79
2023/07/05 08:31:58;;;;;;;;;;;;;;;29.02;43.89;99505.28;4495870;31;34838;-79
2023/07/05 08:34:30;;;;;;;;;;;;;;;28.60;45.79;99497.59;4495047;31;33911;-79
2023/07/05 08:37:01;;;;;;;;;;;;;;;28.98;45.61;99498.56;4497652;31;35189;-79
2023/07/05 08:39:33;;;;;;;;;;;;;;;29.15;44.07;99503.19;4500443;31;32712;-79
2023/07/05 08:42:09;;;;;;;;;;;;;;;28.90;43.77;99504.63;4505204;31;34063;-79
2023/07/05 08:44:45;;;;;;;;;;;;;;;29.19;43.87;99506.41;4495514;31;33576;-79
2023/07/05 08:47:18;;;;;;;;;;;;;;;29.42;45.43;99514.94;4497451;31;34769;-80
2023/07/05 08:49:47;;;;;;;;;;;;;;;29.62;44.55;99507.69;4501436;31;33350;-80
2023/07/05 08:52:21;;;;;;;;;;;;;;;29.27;43.65;99510.06;4501892;31;34006;-80
2023/07/05 08:54:50;;;;;;;;;;;;;;;29.72;43.96;99506.72;4492652;31;34791;-78
2023/07/05 08:57:23;;;;;;;;;;;;;;;29.62;43.03;99513.03;4491729;31;35083;-80
2023/07/05 08:59:54;;;;;;;;;;;;;;;29.66;43.10;99509.97;4494530;31;34699;-78
2023/07/05 09:02:30;;;;;;;;;;;;;;;29.72;42.64;99512.06;4494676;31;33838;-78
2023/07/05 09:05:04;;;;;;;;;;;;;;;29.55;42.35;99508.28;4509997;31;33763;-79
2023/07/05 09:07:37;;;;;;;;;;;;;;;29.62;41.64;99505.84;4505355;31;34382;-80
2023/07/05 09:10:12;;;;;;;;;;;;;;;29.53;42.19;99509.44;4501321;31;33272;-81
2023/07/05 09:12:48;;;;;;;;;;;;;;;29.43;42.33;99511.25;4496899;31;34697;-80
2023/07/05 09:15:19;;;;;;;;;;;;;;;29.84;42.27;99504.69;4498459;31;34045;-80
2023/07/05 09:17:53;;;;;;;;;;;;;;;30.18;41.37;99496.03;4499090;31;34069;-81
2023/07/05 09:20:31;;;;;;;;;;;;;;;29.82;40.87;99508.47;4493630;31;34097;-81
2023/07/05 09:23:05;;;;;;;;;;;;;;;29.81;41.41;99501.44;4493489;31;34359;-81
2023/07/05 09:25:39;;;;;;;;;;;;;;;30.15;40.25;99494.47;4496327;31;33593;-79
2023/07/05 09:28:24;;;;;;;;;;;;;;;30.23;41.42;99490.22;4494380;31;34174;-79
2023/07/05 09:30:57;;;;;;;;;;;;;;;30.53;41.06;99499.75;4499235;31;32513;-80
2023/07/05 09:33:28;;;;;;;;;;;;;;;30.76;39.15;99497.44;4498354;31;34125;-79
2023/07/05 09:36:03;;;;;;;;;;;;;;;30.87;39.83;99497.22;4493199;31;34196;-79
2023/07/05 09:38:36;;;;;;;;;;;;;;;30.97;39.40;99500.66;4494053;31;33338;-80
2023/07/05 09:41:06;;;;;;;;;;;;;;;30.92;39.51;99491.41;4497284;31;32995;-79
2023/07/05 09:43:42;;;;;;;;;;;;;;;30.87;38.72;99488.34;4498260;31;34277;-80
2023/07/05 09:46:13;;;;;;;;;;;;;;;31.16;38.89;99494.25;4497824;31;34002;-80
2023/07/05 09:48:47;;;;;;;;;;;;;;;30.77;38.94;99485.75;4492871;31;33838;-79
2023/07/05 09:51:17;;;;;;;;;;;;;;;30.61;40.36;99478.41;4494404;31;34209;-80
2023/07/05 09:53:56;;;;;;;;;;;;;;;30.48;40.83;99477.97;4493526;31;33041;-79
2023/07/05 09:56:28;;;;;;;;;;;;;;;30.30;38.99;99480.63;4503684;31;34989;-78
2023/07/05 09:59:07;;;;;;;;;;;;;;;30.33;37.94;99474.97;4493241;31;34649;-79
2023/07/05 10:01:36;;;;;;;;;;;;;;;30.81;37.91;99479.09;4493643;31;33778;-79
2023/07/05 10:04:05;;;;;;;;;;;;;;;30.79;38.74;99479.22;4493332;31;34252;-79
2023/07/05 10:06:35;;;;;;;;;;;;;;;30.83;38.45;99477.09;4493087;31;34448;-79
2023/07/05 10:09:11;;;;;;;;;;;;;;;30.93;37.22;99477.00;4498770;31;33669;-78
2023/07/05 10:11:43;;;;;;;;;;;;;;;31.03;37.89;99477.75;4496209;31;33625;-82
2023/07/05 10:14:13;;;;;;;;;;;;;;;30.99;37.80;99474.53;4492979;31;34208;-77
2023/07/05 10:16:46;;;;;;;;;;;;;;;30.87;38.26;99473.13;4493066;31;32990;-82
2023/07/05 10:19:21;;;;;;;;;;;;;;;30.79;39.34;99476.56;4508177;31;33724;-80
2023/07/05 10:21:50;;;;;;;;;;;;;;;31.02;40.53;99476.06;4499974;31;33155;-79
2023/07/05 10:24:24;;;;;;;;;;;;;;;31.04;36.74;99474.06;4492409;31;34227;-78
2023/07/05 10:27:01;;;;;;;;;;;;;;;30.98;38.16;99470.19;4492639;31;35135;-78
2023/07/05 10:29:30;;;;;;;;;;;;;;;31.24;36.54;99474.69;4494432;31;33617;-78
2023/07/05 10:32:11;;;;;;;;;;;;;;;31.11;36.72;99463.56;4492482;31;33544;-81
2023/07/05 10:34:40;;;;;;;;;;;;;;;31.51;36.02;99459.47;4498497;31;34438;-78
2023/07/05 10:37:11;;;;;;;;;;;;;;;31.75;35.14;99459.59;4480799;31;33515;-78
2023/07/05 10:39:44;;;;;;;;;;;;;;;31.79;33.89;99457.41;4494941;31;34057;-80
2023/07/05 10:42:13;;;;;;;;;;;;;;;32.21;34.48;99459.19;4495421;31;33360;-82
2023/07/05 10:44:43;;;;;;;;;;;;;;;32.36;33.31;99462.09;4503672;31;33948;-78
2023/07/05 10:47:12;;;;;;;;;;;;;;;32.41;34.86;99462.44;4495400;31;34848;-79
2023/07/05 10:49:44;;;;;;;;;;;;;;;31.93;34.36;99451.41;4493943;31;34282;-81
2023/07/05 10:52:15;;;;;;;;;;;;;;;32.16;32.35;99446.31;4494484;31;33115;-78
2023/07/05 10:54:46;;;;;;;;;;;;;;;32.43;32.55;99453.22;4494792;31;33896;-79
2023/07/05 10:57:17;;;;;;;;;;;;;;;32.62;32.35;99454.75;4500221;31;34297;-80
2023/07/05 10:59:51;;;;;;;;;;;;;;;32.85;32.02;99449.53;4494485;31;33172;-78
2023/07/05 11:02:23;;;;;;;;;;;;;;;33.23;31.62;99451.69;4498845;31;33429;-80
2023/07/05 11:04:56;;;;;;;;;;;;;;;33.40;31.26;99447.94;4495236;31;33538;-78
2023/07/05 11:07:34;;;;;;;;;;;;;;;33.57;29.11;99441.50;4498459;31;34091;-78
2023/07/05 11:10:06;;;;;;;;;;;;;;;33.53;30.61;99442.81;4500135;31;34259;-78
2023/07/05 11:12:42;;;;;;;;;;;;;;;33.71;31.23;99434.53;4499128;31;33380;-80
2023/07/05 11:15:14;;;;;;;;;;;;;;;33.69;29.24;99431.19;4494671;31;33703;-79
2023/07/05 11:17:43;;;;;;;;;;;;;;;33.82;27.76;99427.91;4494778;31;33981;-78
2023/07/05 11:20:35;;;;;;;;;;;;;;;33.26;29.79;99419.06;4499032;31;33891;-78
2023/07/05 11:23:08;;;;;;;;;;;;;;;33.28;29.63;99420.56;4500337;31;33174;-79
2023/07/05 11:25:55;;;;;;;;;;;;;;;33.39;30.26;99418.50;4495118;31;33288;-79
2023/07/05 11:28:34;;;;;;;;;;;;;;;33.54;30.41;99417.62;4494321;31;34048;-78
2023/07/05 11:31:11;;;;;;;;;;;;;;;33.71;30.78;99429.16;4495134;31;34053;-79
2023/07/05 11:33:41;;;;;;;;;;;;;;;34.04;30.68;99417.34;4501197;31;34169;-81
2023/07/05 11:36:29;;;;;;;;;;;;;;;33.72;28.52;99420.06;4500326;31;34705;-80
2023/07/05 11:38:58;;;;;;;;;;;;;;;33.54;29.40;99414.91;4498579;31;34179;-78
2023/07/05 11:41:34;;;;;;;;;;;;;;;33.93;28.35;99408.69;4495921;31;33728;-79
2023/07/05 11:44:05;;;;;;;;;;;;;;;34.49;29.25;99404.94;4502941;31;33319;-79
2023/07/05 11:46:40;;;;;;;;;;;;;;;34.90;27.63;99396.50;4493895;31;33837;-81
2023/07/05 11:49:25;;;;;;;;;;;;;;;35.09;28.48;99405.91;4501003;31;34889;-79
2023/07/05 11:51:56;;;;;;;;;;;;;;;35.04;29.67;99403.75;4502896;31;34038;-80
2023/07/05 11:54:28;;;;;;;;;;;;;;;34.79;29.29;99395.91;4494576;31;32667;-78
2023/07/05 11:56:57;;;;;;;;;;;;;;;34.49;29.15;99392.31;4493298;31;34014;-77
2023/07/05 11:59:27;;;;;;;;;;;;;;;34.20;29.41;99387.66;4500071;31;33811;-78
2023/07/05 12:01:56;;;;;;;;;;;;;;;34.02;31.37;99387.91;4504290;31;33595;-78
2023/07/05 12:04:27;;;;;;;;;;;;;;;33.96;32.22;99384.09;4499653;31;33048;-78
2023/07/05 12:07:02;;;;;;;;;;;;;;;33.88;31.00;99376.09;4499125;31;33435;-80
2023/07/05 12:09:33;;;;;;;;;;;;;;;33.71;31.63;99377.22;4496766;31;34670;-78
2023/07/05 12:12:05;;;;;;;;;;;;;;;34.14;30.18;99374.91;4495643;31;34026;-79
2023/07/05 12:14:37;;;;;;;;;;;;;;;33.95;29.43;99366.28;4501704;31;33792;-78
2023/07/05 12:17:12;;;;;;;;;;;;;;;34.36;29.31;99357.06;4498096;31;33697;-81
2023/07/05 12:19:41;;;;;;;;;;;;;;;34.31;30.08;99357.62;4504892;31;35079;-78
2023/07/05 12:22:19;;;;;;;;;;;;;;;34.38;30.56;99357.72;4498891;31;33879;-78
2023/07/05 12:24:49;;;;;;;;;;;;;;;34.80;31.66;99359.88;4494115;31;34469;-79
2023/07/05 12:27:20;;;;;;;;;;;;;;;34.63;30.14;99348.41;4505005;31;33970;-80
2023/07/05 12:29:52;;;;;;;;;;;;;;;34.58;29.50;99339.19;4494799;31;33908;-78
2023/07/05 12:32:21;;;;;;;;;;;;;;;34.69;28.38;99340.63;4495713;31;33100;-78
2023/07/05 12:35:05;;;;;;;;;;;;;;;34.39;30.68;99335.16;4493244;31;32758;-78
2023/07/05 12:37:36;;;;;;;;;;;;;;;34.03;32.41;99318.78;4458571;31;1098131;-79
2023/07/05 12:40:15;;;;;;;;;;;;;;;34.54;31.69;99330.63;4499807;31;33213;-77
2023/07/05 12:42:48;;;;;;;;;;;;;;;34.29;30.80;99332.72;4501048;31;33653;-77
2023/07/05 12:45:19;;;;;;;;;;;;;;;34.44;29.46;99324.69;4499062;31;32918;-78
2023/07/05 12:47:48;;;;;;;;;;;;;;;34.24;31.57;99313.59;4501278;31;33079;-78
2023/07/05 12:50:21;;;;;;;;;;;;;;;34.37;32.13;99307.59;4502962;31;35172;-78
2023/07/05 12:53:05;;;;;;;;;;;;;;;34.86;32.75;99308.94;4506282;31;33831;-78
2023/07/05 12:55:35;;;;;;;;;;;;;;;35.04;31.62;99307.53;4496498;31;33172;-77
2023/07/05 12:58:10;;;;;;;;;;;;;;;35.05;30.63;99305.66;4492680;31;33772;-78
2023/07/05 13:00:49;;;;;;;;;;;;;;;35.05;29.47;99302.97;4495140;31;35150;-80
2023/07/05 13:03:18;;;;;;;;;;;;;;;35.20;28.69;99298.41;4494069;31;33831;-78
2023/07/05 13:05:56;;;;;;;;;;;;;;;34.98;29.85;99300.19;4498822;31;32765;-80
2023/07/05 13:08:29;;;;;;;;;;;;;;;34.50;29.81;99293.47;4491710;31;34383;-77
2023/07/05 13:10:58;;;;;;;;;;;;;;;34.35;30.75;99286.22;4498750;31;34416;-81
2023/07/05 13:13:30;;;;;;;;;;;;;;;34.22;32.51;99280.62;4495604;31;34541;-77
2023/07/05 13:16:17;;;;;;;;;;;;;;;34.24;33.04;99278.59;4498987;31;33919;-81